createdAt,value
2019-01-17T00:00:51.269Z,-0.02
2019-01-17T00:03:39.557Z,-0.17
2019-01-17T00:06:34.113Z,-0.28
2019-01-17T00:09:31.597Z,-0.41
2019-01-17T00:12:07.857Z,-0.48
2019-01-17T00:15:05.498Z,-0.67
2019-01-17T00:17:52.947Z,-0.63
2019-01-17T00:20:56.698Z,-0.74
2019-01-17T00:23:43.664Z,-0.64
2019-01-17T00:26:31.940Z,-0.69
2019-01-17T00:29:23.148Z,-0.74
2019-01-17T00:32:08.910Z,-0.65
2019-01-17T00:34:52.787Z,-0.67
2019-01-17T00:37:53.590Z,-0.65
2019-01-17T00:40:33.459Z,-0.67
2019-01-17T00:43:22.052Z,-0.57
2019-01-17T00:46:10.288Z,-0.57
2019-01-17T00:49:01.660Z,-0.64
2019-01-17T00:51:50.258Z,-0.80
2019-01-17T00:54:41.779Z,-0.70
2019-01-17T00:57:42.042Z,-0.63
2019-01-17T01:00:31.630Z,-0.63
2019-01-17T01:03:12.109Z,-0.66
2019-01-17T01:06:10.440Z,-0.52
2019-01-17T01:08:58.737Z,-0.78
2019-01-17T01:11:41.139Z,-0.63
2019-01-17T01:14:25.228Z,-0.52
2019-01-17T01:17:15.914Z,-0.47
2019-01-17T01:19:59.432Z,-0.41
2019-01-17T01:22:52.782Z,-0.32
2019-01-17T01:25:46.896Z,-0.35
2019-01-17T01:28:38.212Z,-0.49
2019-01-17T01:31:29.324Z,-0.56
2019-01-17T01:34:23.396Z,-0.55
2019-01-17T01:37:11.216Z,-0.52
2019-01-17T01:40:09.080Z,-0.46
2019-01-17T01:42:59.494Z,-0.51
2019-01-17T01:45:53.988Z,-0.52
2019-01-17T01:48:41.241Z,-0.57
2019-01-17T01:51:28.413Z,-0.42
2019-01-17T01:53:57.769Z,-0.51
2019-01-17T01:56:27.116Z,-0.66
2019-01-17T01:58:56.543Z,-0.67
2019-01-17T02:01:25.891Z,-0.69
2019-01-17T02:03:55.317Z,-0.51
2019-01-17T02:06:24.695Z,-0.39
2019-01-17T02:08:54.053Z,-0.37
2019-01-17T02:11:23.406Z,-0.45
2019-01-17T02:13:53.445Z,-0.57
2019-01-17T02:16:22.799Z,-0.67
2019-01-17T02:18:52.186Z,-0.75
2019-01-17T02:21:21.560Z,-0.67
2019-01-17T02:23:50.933Z,-0.76
2019-01-17T02:26:20.295Z,-0.91
2019-01-17T02:28:49.754Z,-0.89
2019-01-17T02:31:19.112Z,-1.16
2019-01-17T02:33:48.433Z,-1.34
2019-01-17T02:36:17.816Z,-1.46
2019-01-17T02:38:47.156Z,-1.52
2019-01-17T02:41:16.481Z,-1.58
2019-01-17T02:43:45.877Z,-1.80
2019-01-17T02:46:15.293Z,-1.99
2019-01-17T02:48:44.634Z,-2.15
2019-01-17T02:51:13.977Z,-2.49
2019-01-17T02:53:43.409Z,-2.41
2019-01-17T02:56:12.764Z,-2.54
2019-01-17T02:58:42.111Z,-2.58
2019-01-17T03:01:11.478Z,-2.59
2019-01-17T03:03:40.846Z,-2.60
2019-01-17T03:06:10.217Z,-2.53
2019-01-17T03:08:39.697Z,-2.39
2019-01-17T03:11:09.027Z,-2.39
2019-01-17T03:13:38.341Z,-2.36
2019-01-17T03:16:07.691Z,-2.26
2019-01-17T03:18:37.007Z,-2.27
2019-01-17T03:21:06.325Z,-2.47
2019-01-17T03:23:35.703Z,-2.62
2019-01-17T03:26:05.082Z,-2.66
2019-01-17T03:28:34.453Z,-2.71
2019-01-17T03:31:03.792Z,-2.73
2019-01-17T03:33:33.251Z,-2.76
2019-01-17T03:36:02.625Z,-2.73
2019-01-17T03:38:31.992Z,-2.66
2019-01-17T03:41:01.348Z,-2.51
2019-01-17T03:43:31.582Z,-2.52
2019-01-17T03:46:00.963Z,-2.51
2019-01-17T03:48:30.399Z,-2.50
2019-01-17T03:50:59.733Z,-2.36
2019-01-17T03:53:29.129Z,-2.41
2019-01-17T03:55:58.652Z,-2.46
2019-01-17T03:58:28.158Z,-2.38
2019-01-17T04:00:57.496Z,-2.37
2019-01-17T04:03:26.826Z,-2.31
2019-01-17T04:05:56.191Z,-2.38
2019-01-17T04:08:25.564Z,-2.54
2019-01-17T04:10:54.967Z,-2.64
2019-01-17T04:13:24.345Z,-2.62
2019-01-17T04:15:53.788Z,-2.68
2019-01-17T04:18:23.176Z,-2.79
2019-01-17T04:20:52.574Z,-2.94
2019-01-17T04:23:21.895Z,-2.81
2019-01-17T04:25:51.306Z,-2.86
2019-01-17T04:28:20.656Z,-3.02
2019-01-17T04:30:50.003Z,-3.16
2019-01-17T04:33:19.355Z,-3.25
2019-01-17T04:35:48.665Z,-3.32
2019-01-17T04:38:18.034Z,-3.29
2019-01-17T04:40:47.356Z,-3.24
2019-01-17T04:43:16.714Z,-3.25
2019-01-17T04:45:46.030Z,-3.44
2019-01-17T04:48:15.379Z,-3.53
2019-01-17T04:50:44.773Z,-3.29
2019-01-17T04:53:14.101Z,-3.15
2019-01-17T04:55:43.477Z,-3.09
2019-01-17T04:58:12.773Z,-3.07
2019-01-17T05:00:42.131Z,-3.28
2019-01-17T05:03:11.498Z,-3.34
2019-01-17T05:05:40.840Z,-3.31
2019-01-17T05:08:10.456Z,-3.08
2019-01-17T05:10:39.993Z,-3.10
2019-01-17T05:13:09.378Z,-3.08
2019-01-17T05:15:38.766Z,-3.10
2019-01-17T05:18:08.149Z,-3.16
2019-01-17T05:20:37.529Z,-3.37
2019-01-17T05:23:06.977Z,-3.35
2019-01-17T05:25:36.293Z,-3.26
2019-01-17T05:28:05.648Z,-3.16
2019-01-17T05:30:35.101Z,-3.25
2019-01-17T05:33:04.472Z,-3.24
2019-01-17T05:35:33.809Z,-3.26
2019-01-17T05:38:03.173Z,-3.22
2019-01-17T05:40:32.557Z,-3.01
2019-01-17T05:43:01.967Z,-2.71
2019-01-17T05:45:31.338Z,-2.68
2019-01-17T05:48:00.818Z,-2.84
2019-01-17T05:50:30.201Z,-2.82
2019-01-17T05:52:59.530Z,-2.84
2019-01-17T05:55:28.875Z,-3.17
2019-01-17T05:57:58.273Z,-3.44
2019-01-17T06:00:27.616Z,-3.44
2019-01-17T06:02:56.991Z,-3.37
2019-01-17T06:05:26.481Z,-3.26
2019-01-17T06:07:55.864Z,-3.31
2019-01-17T06:10:25.609Z,-3.34
2019-01-17T06:12:55.316Z,-3.11
2019-01-17T06:15:25.312Z,-2.59
2019-01-17T06:17:54.766Z,-2.34
2019-01-17T06:20:24.671Z,-2.07
2019-01-17T06:22:54.214Z,-1.96
2019-01-17T06:25:28.163Z,-1.66
2019-01-17T06:27:55.435Z,-1.46
2019-01-17T06:30:24.868Z,-1.79
2019-01-17T06:32:54.684Z,-2.25
2019-01-17T06:35:24.075Z,-2.25
2019-01-17T06:37:53.450Z,-1.89
2019-01-17T06:40:28.672Z,-1.62
2019-01-17T06:42:58.000Z,-1.18
2019-01-17T06:45:27.339Z,-1.13
2019-01-17T06:47:56.748Z,-1.28
2019-01-17T06:50:26.562Z,-1.40
2019-01-17T06:52:55.917Z,-1.17
2019-01-17T06:55:25.671Z,-0.93
2019-01-17T06:57:55.142Z,-0.82
2019-01-17T07:00:24.536Z,-0.44
2019-01-17T07:02:54.331Z,-0.30
2019-01-17T07:05:24.057Z,0.15
2019-01-17T07:07:53.527Z,0.15
2019-01-17T07:10:22.939Z,1.37
2019-01-17T07:12:52.330Z,2.14
2019-01-17T07:15:24.180Z,1.45
2019-01-17T07:17:53.584Z,1.05
2019-01-17T07:20:22.953Z,0.96
2019-01-17T07:22:52.311Z,0.96
2019-01-17T07:25:21.747Z,1.46
2019-01-17T07:27:52.939Z,1.06
2019-01-17T07:30:23.789Z,0.98
2019-01-17T07:32:53.137Z,1.60
2019-01-17T07:35:22.528Z,1.95
2019-01-17T07:37:52.227Z,2.09
2019-01-17T07:40:23.892Z,2.59
2019-01-17T07:42:53.224Z,2.82
2019-01-17T07:45:31.879Z,2.87
2019-01-17T07:48:01.251Z,2.87
2019-01-17T07:50:30.640Z,2.84
2019-01-17T07:53:00.034Z,2.90
2019-01-17T07:55:29.373Z,3.18
2019-01-17T07:57:58.682Z,3.56
2019-01-17T08:00:28.001Z,3.20
2019-01-17T08:02:57.387Z,3.07
2019-01-17T08:05:26.782Z,3.12
2019-01-17T08:07:56.117Z,2.36
2019-01-17T08:10:25.523Z,1.84
2019-01-17T08:12:54.959Z,2.23
2019-01-17T08:15:24.335Z,1.93
2019-01-17T08:17:53.709Z,1.79
2019-01-17T08:20:24.501Z,1.43
2019-01-17T08:22:54.329Z,0.87
2019-01-17T08:25:23.678Z,1.17
2019-01-17T08:27:52.983Z,2.01
2019-01-17T08:30:27.463Z,1.02
2019-01-17T08:32:56.804Z,2.37
2019-01-17T08:35:26.118Z,3.00
2019-01-17T08:37:55.905Z,3.33
2019-01-17T08:40:33.556Z,3.39
2019-01-17T08:43:02.878Z,3.42
2019-01-17T08:45:32.202Z,3.51
2019-01-17T08:48:01.588Z,3.28
2019-01-17T08:50:31.052Z,3.35
2019-01-17T08:53:00.418Z,3.54
2019-01-17T08:55:29.774Z,3.93
2019-01-17T08:57:59.123Z,3.56
2019-01-17T09:00:28.487Z,4.11
2019-01-17T09:02:57.824Z,3.91
2019-01-17T09:05:27.301Z,4.26
2019-01-17T09:07:56.672Z,4.59
2019-01-17T09:10:28.040Z,5.16
2019-01-17T09:12:57.605Z,4.96
2019-01-17T09:15:29.521Z,5.15
2019-01-17T09:17:58.950Z,5.42
2019-01-17T09:20:28.269Z,5.35
2019-01-17T09:22:57.715Z,5.09
2019-01-17T09:25:27.065Z,4.73
2019-01-17T09:27:56.390Z,5.50
2019-01-17T09:30:25.791Z,5.54
2019-01-17T09:32:55.187Z,5.43
2019-01-17T09:35:24.525Z,5.72
2019-01-17T09:37:53.922Z,5.80
2019-01-17T09:40:23.324Z,5.72
2019-01-17T09:42:52.636Z,5.57
2019-01-17T09:45:22.021Z,5.53
2019-01-17T09:47:51.400Z,6.01
2019-01-17T09:50:23.091Z,6.01
2019-01-17T09:52:52.430Z,6.42
2019-01-17T09:55:21.772Z,6.60
2019-01-17T09:57:51.128Z,6.87
2019-01-17T10:00:22.910Z,7.04
2019-01-17T10:02:52.253Z,7.22
2019-01-17T10:05:21.605Z,7.07
2019-01-17T10:07:51.368Z,7.12
2019-01-17T10:10:20.797Z,7.01
2019-01-17T10:12:50.473Z,7.09
2019-01-17T10:15:23.719Z,7.79
2019-01-17T10:18:17.333Z,7.70
2019-01-17T10:21:14.994Z,7.33
2019-01-17T10:24:05.022Z,7.34
2019-01-17T10:27:10.215Z,7.95
2019-01-17T10:30:14.161Z,8.21
2019-01-17T10:33:21.586Z,8.20
2019-01-17T10:36:15.390Z,7.71
2019-01-17T10:39:21.581Z,8.22
2019-01-17T10:42:38.910Z,8.24
2019-01-17T10:45:36.918Z,8.82
2019-01-17T10:48:36.146Z,8.42
2019-01-17T10:51:52.238Z,8.28
2019-01-17T10:55:07.434Z,8.34
2019-01-17T10:58:20.831Z,9.12
2019-01-17T11:01:46.298Z,8.51
2019-01-17T11:04:50.468Z,8.61
2019-01-17T11:08:15.758Z,8.71
2019-01-17T11:11:08.691Z,9.00
2019-01-17T11:13:57.816Z,8.53
2019-01-17T11:17:06.887Z,9.06
2019-01-17T11:20:05.456Z,9.15
2019-01-17T11:23:06.787Z,8.91
2019-01-17T11:25:56.841Z,8.97
2019-01-17T11:29:04.376Z,9.17
2019-01-17T11:32:09.537Z,9.16
2019-01-17T11:35:13.430Z,9.25
2019-01-17T11:38:13.784Z,8.87
2019-01-17T11:41:25.735Z,8.98
2019-01-17T11:45:03.388Z,9.34
2019-01-17T11:48:21.904Z,9.24
2019-01-17T11:51:36.423Z,9.34
2019-01-17T11:54:56.027Z,9.12
2019-01-17T11:57:32.369Z,9.60
2019-01-17T12:00:53.290Z,9.21
2019-01-17T12:03:58.368Z,9.11
2019-01-17T12:06:27.702Z,9.20
2019-01-17T12:08:57.074Z,9.55
2019-01-17T12:11:26.415Z,10.16
2019-01-17T12:13:55.756Z,10.42
2019-01-17T12:16:25.236Z,10.09
2019-01-17T12:18:54.561Z,10.11
2019-01-17T12:21:23.904Z,10.11
2019-01-17T12:23:53.399Z,10.37
2019-01-17T12:26:22.821Z,9.61
2019-01-17T12:28:52.142Z,9.51
2019-01-17T12:31:21.587Z,9.68
2019-01-17T12:33:50.966Z,9.63
2019-01-17T12:36:22.124Z,9.81
2019-01-17T12:38:51.468Z,9.95
2019-01-17T12:41:20.894Z,9.89
2019-01-17T12:43:50.285Z,10.13
2019-01-17T12:46:19.649Z,10.34
2019-01-17T12:48:49.043Z,10.47
2019-01-17T12:51:18.390Z,10.56
2019-01-17T12:53:47.736Z,10.55
2019-01-17T12:56:17.109Z,10.52
2019-01-17T12:58:46.428Z,10.41
2019-01-17T13:01:16.107Z,10.32
2019-01-17T13:03:45.694Z,10.34
2019-01-17T13:06:15.044Z,10.40
2019-01-17T13:08:44.372Z,10.43
2019-01-17T13:11:13.719Z,10.02
2019-01-17T13:13:43.091Z,9.85
2019-01-17T13:16:12.786Z,10.01
2019-01-17T13:18:42.477Z,10.14
2019-01-17T13:21:11.897Z,10.19
2019-01-17T13:23:41.367Z,10.28
2019-01-17T13:26:10.692Z,10.22
2019-01-17T13:28:40.044Z,10.06
2019-01-17T13:31:09.400Z,10.11
2019-01-17T13:33:38.798Z,10.05
2019-01-17T13:36:12.035Z,9.82
2019-01-17T13:38:41.500Z,9.47
2019-01-17T13:41:10.893Z,9.45
2019-01-17T13:43:40.312Z,9.49
2019-01-17T13:46:09.688Z,9.59
2019-01-17T13:48:39.009Z,9.59
2019-01-17T13:51:08.840Z,9.49
2019-01-17T13:53:39.695Z,9.52
2019-01-17T13:56:09.138Z,9.46
2019-01-17T13:58:38.534Z,9.40
2019-01-17T14:01:07.881Z,9.31
2019-01-17T14:03:37.569Z,9.09
2019-01-17T14:06:06.885Z,8.90
2019-01-17T14:08:36.219Z,8.69
2019-01-17T14:11:06.020Z,8.38
2019-01-17T14:13:35.400Z,8.15
2019-01-17T14:16:05.141Z,7.97
2019-01-17T14:18:34.475Z,7.88
2019-01-17T14:21:04.015Z,8.05
2019-01-17T14:23:33.390Z,7.84
2019-01-17T14:26:02.759Z,7.87
2019-01-17T14:28:32.143Z,7.84
2019-01-17T14:31:01.699Z,7.92
2019-01-17T14:33:31.179Z,7.79
2019-01-17T14:36:00.609Z,7.57
2019-01-17T14:38:29.988Z,7.51
2019-01-17T14:40:59.357Z,7.36
2019-01-17T14:43:28.881Z,7.25
2019-01-17T14:45:58.262Z,7.13
2019-01-17T14:48:27.659Z,7.13
2019-01-17T14:50:57.118Z,7.01
2019-01-17T14:53:26.489Z,6.82
2019-01-17T14:56:01.918Z,6.68
2019-01-17T14:58:31.361Z,6.60
2019-01-17T15:01:00.772Z,6.46
2019-01-17T15:03:30.102Z,6.33
2019-01-17T15:05:59.389Z,6.18
2019-01-17T15:08:28.847Z,6.07
2019-01-17T15:10:58.222Z,5.94
2019-01-17T15:13:27.665Z,5.86
2019-01-17T15:15:57.068Z,5.73
2019-01-17T15:18:26.454Z,5.69
2019-01-17T15:20:55.822Z,5.64
2019-01-17T15:23:25.194Z,5.60
2019-01-17T15:25:54.754Z,5.64
2019-01-17T15:28:24.147Z,5.64
2019-01-17T15:30:53.516Z,5.47
2019-01-17T15:33:22.825Z,5.44
2019-01-17T15:35:52.248Z,5.52
2019-01-17T15:38:21.799Z,5.45
2019-01-17T15:40:51.265Z,5.40
2019-01-17T15:43:20.662Z,5.31
2019-01-17T15:45:51.893Z,5.38
2019-01-17T15:48:21.207Z,5.30
2019-01-17T15:50:50.564Z,5.04
2019-01-17T15:53:19.970Z,4.95
2019-01-17T15:55:49.629Z,5.03
2019-01-17T15:58:18.977Z,4.99
2019-01-17T16:00:48.270Z,4.85
2019-01-17T16:03:17.574Z,4.69
2019-01-17T16:05:47.048Z,4.62
2019-01-17T16:08:16.873Z,4.57
2019-01-17T16:10:46.235Z,4.52
2019-01-17T16:13:15.856Z,4.48
2019-01-17T16:16:03.673Z,4.44
2019-01-17T16:18:32.992Z,3.56
2019-01-17T16:21:02.363Z,4.06
2019-01-17T16:23:31.777Z,4.03
2019-01-17T16:26:02.402Z,4.04
2019-01-17T16:28:31.866Z,4.02
2019-01-17T16:31:01.211Z,4.01
2019-01-17T16:33:30.579Z,3.98
2019-01-17T16:35:59.912Z,3.95
2019-01-17T16:38:29.292Z,3.81
2019-01-17T16:40:58.748Z,3.74
2019-01-17T16:43:28.239Z,3.58
2019-01-17T16:45:57.603Z,3.48
2019-01-17T16:48:26.934Z,3.41
2019-01-17T16:50:56.280Z,3.55
2019-01-17T16:53:25.638Z,3.41
2019-01-17T16:55:54.951Z,3.41
2019-01-17T16:58:24.304Z,3.34
2019-01-17T17:00:53.709Z,3.08
2019-01-17T17:03:23.028Z,3.05
2019-01-17T17:05:52.377Z,2.82
2019-01-17T17:08:21.702Z,2.82
2019-01-17T17:10:51.169Z,2.67
2019-01-17T17:13:20.568Z,2.87
2019-01-17T17:15:49.946Z,2.84
2019-01-17T17:18:19.283Z,2.84
2019-01-17T17:20:48.799Z,2.95
2019-01-17T17:23:18.260Z,2.59
2019-01-17T17:25:47.680Z,2.59
2019-01-17T17:28:17.023Z,2.58
2019-01-17T17:30:46.400Z,1.47
2019-01-17T17:33:15.782Z,2.76
2019-01-17T17:35:45.166Z,2.72
2019-01-17T17:38:14.570Z,2.76
2019-01-17T17:40:43.929Z,2.79
2019-01-17T17:43:13.276Z,2.67
2019-01-17T17:45:42.623Z,2.68
2019-01-17T17:48:11.966Z,2.68
2019-01-17T17:50:41.394Z,2.64
2019-01-17T17:53:10.781Z,2.60
2019-01-17T17:56:02.808Z,2.57
2019-01-17T17:58:32.194Z,2.46
2019-01-17T18:01:09.908Z,2.41
2019-01-17T18:03:39.243Z,2.55
2019-01-17T18:06:08.649Z,2.60
2019-01-17T18:08:38.090Z,2.53
2019-01-17T18:11:07.482Z,2.50
2019-01-17T18:13:36.839Z,2.50
2019-01-17T18:16:06.187Z,2.36
2019-01-17T18:18:35.570Z,1.79
2019-01-17T18:21:05.026Z,1.79
2019-01-17T18:23:34.415Z,1.76
2019-01-17T18:26:04.849Z,1.65
2019-01-17T18:28:35.456Z,1.70
2019-01-17T18:31:05.292Z,1.53
2019-01-17T18:33:34.611Z,1.45
2019-01-17T18:36:04.396Z,1.52
2019-01-17T18:38:34.253Z,1.20
2019-01-17T18:41:03.680Z,1.28
2019-01-17T18:43:35.365Z,1.19
2019-01-17T18:46:04.829Z,1.22
2019-01-17T18:48:34.186Z,1.26
2019-01-17T18:51:05.588Z,1.38
2019-01-17T18:53:37.837Z,1.33
2019-01-17T18:56:07.709Z,1.20
2019-01-17T18:58:37.358Z,1.05
2019-01-17T19:01:07.885Z,1.12
2019-01-17T19:03:37.251Z,1.17
2019-01-17T19:06:07.461Z,1.18
2019-01-17T19:08:36.822Z,1.27
2019-01-17T19:11:06.253Z,1.27
2019-01-17T19:13:36.086Z,0.16
2019-01-17T19:16:05.581Z,1.31
2019-01-17T19:18:34.925Z,1.32
2019-01-17T19:21:04.291Z,1.14
2019-01-17T19:23:34.087Z,1.13
2019-01-17T19:26:03.448Z,0.99
2019-01-17T19:28:32.783Z,0.75
2019-01-17T19:31:02.160Z,0.66
2019-01-17T19:33:31.446Z,0.65
2019-01-17T19:36:01.146Z,-2.77
2019-01-17T19:38:30.525Z,0.76
2019-01-17T19:40:59.925Z,0.78
2019-01-17T19:43:29.303Z,0.74
2019-01-17T19:45:58.655Z,0.74
2019-01-17T19:48:27.990Z,0.82
2019-01-17T19:50:57.290Z,0.72
2019-01-17T19:53:26.630Z,0.67
2019-01-17T19:55:55.995Z,0.71
2019-01-17T19:58:28.981Z,0.74
2019-01-17T20:00:57.724Z,0.76
2019-01-17T20:03:27.148Z,0.58
2019-01-17T20:05:56.796Z,0.52
2019-01-17T20:08:26.190Z,0.64
2019-01-17T20:10:55.600Z,0.72
2019-01-17T20:13:25.150Z,0.46
2019-01-17T20:15:54.756Z,0.41
2019-01-17T20:18:24.225Z,0.59
2019-01-17T20:21:08.956Z,0.71
2019-01-17T20:23:38.287Z,0.67
2019-01-17T20:26:11.700Z,0.52
2019-01-17T20:28:41.065Z,0.58
2019-01-17T20:31:10.738Z,0.50
2019-01-17T20:33:40.096Z,0.41
2019-01-17T20:36:09.459Z,0.34
2019-01-17T20:38:39.000Z,0.13
2019-01-17T20:41:08.560Z,0.00
2019-01-17T20:43:37.922Z,0.06
2019-01-17T20:46:07.403Z,0.00
2019-01-17T20:48:36.830Z,-0.11
2019-01-17T20:51:06.813Z,-0.10
2019-01-17T20:53:36.486Z,-0.07
2019-01-17T20:56:06.015Z,-0.17
2019-01-17T20:58:35.411Z,-0.31
2019-01-17T21:01:43.691Z,-0.20
2019-01-17T21:04:13.240Z,-0.28
2019-01-17T21:06:42.704Z,-0.34
2019-01-17T21:09:14.755Z,-0.33
2019-01-17T21:11:44.706Z,-0.31
2019-01-17T21:14:14.327Z,-0.36
2019-01-17T21:16:44.198Z,-0.46
2019-01-17T21:19:19.653Z,-0.48
2019-01-17T21:21:49.054Z,-0.44
2019-01-17T21:24:19.297Z,-0.51
2019-01-17T21:26:48.721Z,-0.48
2019-01-17T21:29:21.785Z,-0.52
2019-01-17T21:31:51.238Z,-0.61
2019-01-17T21:34:20.628Z,-0.57
2019-01-17T21:36:52.823Z,-0.59
2019-01-17T21:39:22.194Z,-0.85
2019-01-17T21:41:56.458Z,-0.70
2019-01-17T21:44:25.858Z,-0.73
2019-01-17T21:46:55.632Z,-0.75
2019-01-17T21:49:25.383Z,-0.91
2019-01-17T21:52:00.417Z,-0.96
2019-01-17T21:54:29.853Z,-6.11
2019-01-17T21:56:59.263Z,-1.23
2019-01-17T21:59:28.673Z,-1.34
2019-01-17T22:01:58.125Z,-1.23
2019-01-17T22:04:27.543Z,-1.03
2019-01-17T22:06:56.931Z,-1.12
2019-01-17T22:09:26.395Z,-1.11
2019-01-17T22:11:55.777Z,-1.07
2019-01-17T22:14:25.154Z,-1.27
2019-01-17T22:16:54.601Z,-1.31
2019-01-17T22:19:24.054Z,-1.35
2019-01-17T22:21:53.493Z,-1.41
2019-01-17T22:24:22.926Z,-1.55
2019-01-17T22:26:52.313Z,-1.40
2019-01-17T22:29:21.758Z,-1.25
2019-01-17T22:31:51.231Z,-1.26
2019-01-17T22:34:20.725Z,-1.30
2019-01-17T22:36:50.149Z,-1.28
2019-01-17T22:39:19.534Z,-1.47
2019-01-17T22:41:49.022Z,-1.34
2019-01-17T22:44:18.486Z,-1.22
2019-01-17T22:46:47.890Z,-1.09
2019-01-17T22:49:17.246Z,-1.08
2019-01-17T22:51:46.732Z,-1.15
2019-01-17T22:54:16.139Z,-1.29
2019-01-17T22:56:45.481Z,-1.27
2019-01-17T22:59:14.894Z,-1.39
2019-01-17T23:01:44.381Z,-1.36
2019-01-17T23:04:13.719Z,-1.53
2019-01-17T23:06:43.106Z,-1.52
2019-01-17T23:09:12.482Z,-1.33
2019-01-17T23:11:41.830Z,-1.40
2019-01-17T23:14:11.195Z,-1.66
2019-01-17T23:16:40.595Z,-1.75
2019-01-17T23:19:09.994Z,-1.87
2019-01-17T23:21:39.365Z,-1.92
2019-01-17T23:24:08.748Z,-1.72
2019-01-17T23:26:38.189Z,-1.81
2019-01-17T23:29:07.667Z,-1.85
2019-01-17T23:31:37.291Z,-1.99
2019-01-17T23:34:06.843Z,-2.16
2019-01-17T23:36:36.408Z,-2.26
2019-01-17T23:39:10.021Z,-2.31
2019-01-17T23:41:40.006Z,-2.24
2019-01-17T23:44:09.614Z,-2.08
2019-01-17T23:46:39.122Z,-2.07
2019-01-17T23:49:08.703Z,-2.24
2019-01-17T23:51:38.215Z,-2.40
2019-01-17T23:54:07.533Z,-2.40
2019-01-17T23:56:36.907Z,-2.47
2019-01-17T23:59:06.238Z,-2.20
